Llodio, Spain
Current Conditions -  °F | °C
As of 11:30 PM on Thursday 18 Dec 2014 (Local Time) from LEBB Reporting Station
Broken Clouds Broken Clouds  
Wind Chill: 54°   Ceiling: 4100
Heat Index: 54°   Visibility: 6mi
Dew Point: 48°   Wind: 1mph
Humidity: 82%   Direction: NA
Pressure: 30.48"   Gusts: NA
Location:  43.14°N, 2.96°W
Report Text: LEBB 182230Z VRB01KT 9999 FEW030 BKN041 12/09 Q1032 NOSIG
Loading
Personal Weather Stations






























Interactive Weather Map New forecast layout! Learn more

10-Day Weather Forecast

Advertisements
Track Severe Weather on mobile